sensor_id;sensor_type;location;lat;lon;timestamp;P1;durP1;ratioP1;P2;durP2;ratioP2
43529;SDS011;55654;50.966;6.878;2023-01-06T00:00:28;6.27;;;1.87;;
43529;SDS011;55654;50.966;6.878;2023-01-06T00:02:54;5.67;;;1.53;;
43529;SDS011;55654;50.966;6.878;2023-01-06T00:05:20;6.37;;;2.37;;
43529;SDS011;55654;50.966;6.878;2023-01-06T00:07:49;9.57;;;2.33;;
43529;SDS011;55654;50.966;6.878;2023-01-06T00:10:15;12.00;;;2.37;;
43529;SDS011;55654;50.966;6.878;2023-01-06T00:12:43;10.07;;;2.90;;
43529;SDS011;55654;50.966;6.878;2023-01-06T00:15:09;10.00;;;2.30;;
43529;SDS011;55654;50.966;6.878;2023-01-06T00:17:35;8.53;;;2.77;;
43529;SDS011;55654;50.966;6.878;2023-01-06T00:20:02;12.93;;;2.40;;
43529;SDS011;55654;50.966;6.878;2023-01-06T00:22:28;10.27;;;2.87;;
43529;SDS011;55654;50.966;6.878;2023-01-06T00:24:54;8.17;;;2.80;;
43529;SDS011;55654;50.966;6.878;2023-01-06T00:27:23;8.20;;;3.53;;
43529;SDS011;55654;50.966;6.878;2023-01-06T00:29:49;9.40;;;4.73;;
43529;SDS011;55654;50.966;6.878;2023-01-06T00:32:15;8.40;;;4.10;;
43529;SDS011;55654;50.966;6.878;2023-01-06T00:34:41;8.17;;;4.50;;
43529;SDS011;55654;50.966;6.878;2023-01-06T00:37:07;6.87;;;4.13;;
43529;SDS011;55654;50.966;6.878;2023-01-06T00:39:33;7.97;;;3.53;;
43529;SDS011;55654;50.966;6.878;2023-01-06T00:41:59;7.70;;;2.80;;
43529;SDS011;55654;50.966;6.878;2023-01-06T00:44:30;8.17;;;2.50;;
43529;SDS011;55654;50.966;6.878;2023-01-06T00:46:57;5.63;;;2.63;;
43529;SDS011;55654;50.966;6.878;2023-01-06T00:49:25;4.37;;;2.73;;
43529;SDS011;55654;50.966;6.878;2023-01-06T00:51:52;7.40;;;1.90;;
43529;SDS011;55654;50.966;6.878;2023-01-06T00:54:20;3.57;;;1.87;;
43529;SDS011;55654;50.966;6.878;2023-01-06T00:56:48;3.43;;;1.43;;
43529;SDS011;55654;50.966;6.878;2023-01-06T00:59:15;3.63;;;1.27;;
43529;SDS011;55654;50.966;6.878;2023-01-06T01:01:42;6.17;;;1.33;;
43529;SDS011;55654;50.966;6.878;2023-01-06T01:04:08;7.07;;;1.20;;
43529;SDS011;55654;50.966;6.878;2023-01-06T01:06:34;5.23;;;1.47;;
43529;SDS011;55654;50.966;6.878;2023-01-06T01:09:04;5.30;;;1.60;;
43529;SDS011;55654;50.966;6.878;2023-01-06T01:11:30;6.93;;;1.70;;
43529;SDS011;55654;50.966;6.878;2023-01-06T01:14:16;4.70;;;1.30;;
43529;SDS011;55654;50.966;6.878;2023-01-06T01:16:42;8.13;;;2.23;;
43529;SDS011;55654;50.966;6.878;2023-01-06T01:19:11;6.57;;;2.23;;
43529;SDS011;55654;50.966;6.878;2023-01-06T01:21:37;11.30;;;2.57;;
43529;SDS011;55654;50.966;6.878;2023-01-06T01:24:03;5.00;;;2.07;;
43529;SDS011;55654;50.966;6.878;2023-01-06T01:26:30;3.77;;;2.10;;
43529;SDS011;55654;50.966;6.878;2023-01-06T01:28:56;5.67;;;1.30;;
43529;SDS011;55654;50.966;6.878;2023-01-06T01:31:22;5.80;;;1.60;;
43529;SDS011;55654;50.966;6.878;2023-01-06T01:33:48;9.43;;;1.70;;
43529;SDS011;55654;50.966;6.878;2023-01-06T01:36:15;5.63;;;1.60;;
43529;SDS011;55654;50.966;6.878;2023-01-06T01:38:41;5.43;;;1.50;;
43529;SDS011;55654;50.966;6.878;2023-01-06T01:41:12;6.23;;;1.53;;
43529;SDS011;55654;50.966;6.878;2023-01-06T01:43:42;2.60;;;1.20;;
43529;SDS011;55654;50.966;6.878;2023-01-06T01:46:08;5.67;;;1.30;;
43529;SDS011;55654;50.966;6.878;2023-01-06T01:48:35;4.23;;;1.40;;
43529;SDS011;55654;50.966;6.878;2023-01-06T01:51:03;3.53;;;1.20;;
43529;SDS011;55654;50.966;6.878;2023-01-06T01:53:33;8.17;;;1.87;;
43529;SDS011;55654;50.966;6.878;2023-01-06T01:56:01;8.10;;;1.77;;
43529;SDS011;55654;50.966;6.878;2023-01-06T01:58:31;5.10;;;1.93;;
43529;SDS011;55654;50.966;6.878;2023-01-06T02:00:58;5.70;;;1.40;;
43529;SDS011;55654;50.966;6.878;2023-01-06T02:03:24;6.07;;;1.43;;
43529;SDS011;55654;50.966;6.878;2023-01-06T02:05:52;3.30;;;1.13;;
43529;SDS011;55654;50.966;6.878;2023-01-06T02:08:35;8.80;;;1.60;;
43529;SDS011;55654;50.966;6.878;2023-01-06T02:11:02;7.70;;;1.47;;
43529;SDS011;55654;50.966;6.878;2023-01-06T02:13:29;6.10;;;1.80;;
43529;SDS011;55654;50.966;6.878;2023-01-06T02:15:58;4.27;;;1.50;;
43529;SDS011;55654;50.966;6.878;2023-01-06T02:19:11;4.63;;;2.10;;
43529;SDS011;55654;50.966;6.878;2023-01-06T02:52:08;5.70;;;1.33;;
43529;SDS011;55654;50.966;6.878;2023-01-06T02:57:25;7.03;;;1.27;;
43529;SDS011;55654;50.966;6.878;2023-01-06T03:00:01;5.67;;;1.20;;
43529;SDS011;55654;50.966;6.878;2023-01-06T03:02:30;7.53;;;1.27;;
43529;SDS011;55654;50.966;6.878;2023-01-06T03:04:58;6.30;;;1.60;;
43529;SDS011;55654;50.966;6.878;2023-01-06T03:07:25;6.10;;;1.23;;
43529;SDS011;55654;50.966;6.878;2023-01-06T03:09:54;3.70;;;1.10;;
43529;SDS011;55654;50.966;6.878;2023-01-06T03:12:29;8.20;;;1.50;;
43529;SDS011;55654;50.966;6.878;2023-01-06T03:14:56;5.43;;;1.20;;
43529;SDS011;55654;50.966;6.878;2023-01-06T03:17:23;6.53;;;1.07;;
43529;SDS011;55654;50.966;6.878;2023-01-06T03:19:49;4.10;;;1.37;;
43529;SDS011;55654;50.966;6.878;2023-01-06T03:22:15;5.67;;;1.00;;
43529;SDS011;55654;50.966;6.878;2023-01-06T03:24:42;8.27;;;1.50;;
43529;SDS011;55654;50.966;6.878;2023-01-06T03:27:08;10.37;;;1.90;;
43529;SDS011;55654;50.966;6.878;2023-01-06T03:29:34;5.23;;;0.80;;
43529;SDS011;55654;50.966;6.878;2023-01-06T03:34:48;3.40;;;0.90;;
43529;SDS011;55654;50.966;6.878;2023-01-06T03:37:35;2.57;;;0.70;;
43529;SDS011;55654;50.966;6.878;2023-01-06T03:50:31;6.17;;;0.90;;
43529;SDS011;55654;50.966;6.878;2023-01-06T03:53:23;2.63;;;0.70;;
43529;SDS011;55654;50.966;6.878;2023-01-06T03:55:47;4.33;;;0.80;;
43529;SDS011;55654;50.966;6.878;2023-01-06T03:58:16;3.73;;;0.80;;
43529;SDS011;55654;50.966;6.878;2023-01-06T04:00:42;8.07;;;0.83;;
43529;SDS011;55654;50.966;6.878;2023-01-06T04:03:10;3.07;;;1.10;;
43529;SDS011;55654;50.966;6.878;2023-01-06T04:05:42;5.77;;;1.40;;
43529;SDS011;55654;50.966;6.878;2023-01-06T04:08:08;9.77;;;1.23;;
43529;SDS011;55654;50.966;6.878;2023-01-06T04:10:34;6.70;;;1.60;;
43529;SDS011;55654;50.966;6.878;2023-01-06T04:13:02;2.20;;;0.80;;
43529;SDS011;55654;50.966;6.878;2023-01-06T04:15:33;3.90;;;0.87;;
43529;SDS011;55654;50.966;6.878;2023-01-06T04:17:59;4.90;;;0.67;;
43529;SDS011;55654;50.966;6.878;2023-01-06T04:20:28;5.43;;;0.80;;
43529;SDS011;55654;50.966;6.878;2023-01-06T04:22:57;3.45;;;0.95;;
43529;SDS011;55654;50.966;6.878;2023-01-06T04:25:24;5.40;;;0.90;;
43529;SDS011;55654;50.966;6.878;2023-01-06T04:27:50;4.77;;;0.83;;
43529;SDS011;55654;50.966;6.878;2023-01-06T04:30:16;3.83;;;0.83;;
43529;SDS011;55654;50.966;6.878;2023-01-06T04:32:44;7.87;;;1.00;;
43529;SDS011;55654;50.966;6.878;2023-01-06T04:35:10;2.80;;;0.60;;
43529;SDS011;55654;50.966;6.878;2023-01-06T04:37:36;2.17;;;0.60;;
43529;SDS011;55654;50.966;6.878;2023-01-06T04:40:05;2.33;;;0.60;;
43529;SDS011;55654;50.966;6.878;2023-01-06T04:42:31;3.90;;;0.97;;
43529;SDS011;55654;50.966;6.878;2023-01-06T04:45:17;3.83;;;0.97;;
43529;SDS011;55654;50.966;6.878;2023-01-06T04:47:43;4.97;;;0.70;;
43529;SDS011;55654;50.966;6.878;2023-01-06T04:50:09;6.23;;;0.70;;
43529;SDS011;55654;50.966;6.878;2023-01-06T04:52:38;3.47;;;1.00;;
43529;SDS011;55654;50.966;6.878;2023-01-06T04:55:03;5.87;;;1.03;;
43529;SDS011;55654;50.966;6.878;2023-01-06T04:57:29;3.43;;;1.10;;
43529;SDS011;55654;50.966;6.878;2023-01-06T04:59:55;2.43;;;0.90;;
43529;SDS011;55654;50.966;6.878;2023-01-06T05:02:20;5.30;;;1.60;;
43529;SDS011;55654;50.966;6.878;2023-01-06T05:04:46;3.47;;;0.70;;
43529;SDS011;55654;50.966;6.878;2023-01-06T05:07:14;3.50;;;0.50;;
43529;SDS011;55654;50.966;6.878;2023-01-06T05:09:39;4.37;;;0.70;;
43529;SDS011;55654;50.966;6.878;2023-01-06T05:12:05;3.90;;;0.90;;
43529;SDS011;55654;50.966;6.878;2023-01-06T05:14:31;4.50;;;0.73;;
43529;SDS011;55654;50.966;6.878;2023-01-06T05:16:56;3.27;;;0.80;;
43529;SDS011;55654;50.966;6.878;2023-01-06T05:19:22;2.73;;;0.77;;
43529;SDS011;55654;50.966;6.878;2023-01-06T05:21:47;3.70;;;0.40;;
43529;SDS011;55654;50.966;6.878;2023-01-06T05:24:15;5.13;;;0.70;;
43529;SDS011;55654;50.966;6.878;2023-01-06T05:26:41;4.07;;;1.03;;
43529;SDS011;55654;50.966;6.878;2023-01-06T05:29:07;3.73;;;0.70;;
43529;SDS011;55654;50.966;6.878;2023-01-06T05:31:36;1.20;;;0.57;;
43529;SDS011;55654;50.966;6.878;2023-01-06T05:34:02;6.67;;;0.90;;
43529;SDS011;55654;50.966;6.878;2023-01-06T05:36:29;5.80;;;0.73;;
43529;SDS011;55654;50.966;6.878;2023-01-06T05:38:55;3.20;;;0.60;;
43529;SDS011;55654;50.966;6.878;2023-01-06T05:41:21;3.40;;;0.53;;
43529;SDS011;55654;50.966;6.878;2023-01-06T05:43:46;4.37;;;0.80;;
43529;SDS011;55654;50.966;6.878;2023-01-06T05:46:12;3.07;;;0.60;;
43529;SDS011;55654;50.966;6.878;2023-01-06T05:48:40;3.93;;;0.77;;
43529;SDS011;55654;50.966;6.878;2023-01-06T05:51:07;4.80;;;0.60;;
43529;SDS011;55654;50.966;6.878;2023-01-06T05:53:34;1.93;;;0.70;;
43529;SDS011;55654;50.966;6.878;2023-01-06T05:56:03;4.13;;;0.70;;
43529;SDS011;55654;50.966;6.878;2023-01-06T05:58:30;2.20;;;0.70;;
43529;SDS011;55654;50.966;6.878;2023-01-06T06:01:03;1.77;;;0.90;;
43529;SDS011;55654;50.966;6.878;2023-01-06T06:03:29;5.33;;;0.80;;
43529;SDS011;55654;50.966;6.878;2023-01-06T06:06:00;2.17;;;0.50;;
43529;SDS011;55654;50.966;6.878;2023-01-06T06:08:28;1.43;;;0.40;;
43529;SDS011;55654;50.966;6.878;2023-01-06T06:11:03;3.30;;;0.60;;
43529;SDS011;55654;50.966;6.878;2023-01-06T06:13:32;8.97;;;0.90;;
43529;SDS011;55654;50.966;6.878;2023-01-06T06:18:34;1.77;;;0.50;;
43529;SDS011;55654;50.966;6.878;2023-01-06T06:21:04;2.47;;;0.60;;
43529;SDS011;55654;50.966;6.878;2023-01-06T06:23:30;1.90;;;0.30;;
43529;SDS011;55654;50.966;6.878;2023-01-06T06:26:01;2.20;;;0.43;;
43529;SDS011;55654;50.966;6.878;2023-01-06T06:28:31;2.50;;;0.43;;
43529;SDS011;55654;50.966;6.878;2023-01-06T06:31:07;1.57;;;0.50;;
43529;SDS011;55654;50.966;6.878;2023-01-06T06:33:34;1.37;;;0.40;;
43529;SDS011;55654;50.966;6.878;2023-01-06T06:36:01;2.40;;;0.40;;
43529;SDS011;55654;50.966;6.878;2023-01-06T06:38:30;0.90;;;0.40;;
43529;SDS011;55654;50.966;6.878;2023-01-06T06:40:56;2.63;;;0.73;;
43529;SDS011;55654;50.966;6.878;2023-01-06T06:43:22;6.00;;;0.80;;
43529;SDS011;55654;50.966;6.878;2023-01-06T06:45:48;3.97;;;0.70;;
43529;SDS011;55654;50.966;6.878;2023-01-06T06:48:14;3.07;;;1.00;;
43529;SDS011;55654;50.966;6.878;2023-01-06T06:50:43;2.10;;;0.50;;
43529;SDS011;55654;50.966;6.878;2023-01-06T06:53:09;3.77;;;0.60;;
43529;SDS011;55654;50.966;6.878;2023-01-06T06:55:35;2.67;;;0.60;;
43529;SDS011;55654;50.966;6.878;2023-01-06T06:58:03;2.00;;;0.47;;
43529;SDS011;55654;50.966;6.878;2023-01-06T07:00:29;3.57;;;0.70;;
43529;SDS011;55654;50.966;6.878;2023-01-06T07:02:55;0.70;;;0.37;;
43529;SDS011;55654;50.966;6.878;2023-01-06T07:05:24;5.37;;;0.40;;
43529;SDS011;55654;50.966;6.878;2023-01-06T07:07:49;2.50;;;0.50;;
43529;SDS011;55654;50.966;6.878;2023-01-06T07:10:16;4.43;;;0.50;;
43529;SDS011;55654;50.966;6.878;2023-01-06T07:12:42;1.57;;;0.50;;
43529;SDS011;55654;50.966;6.878;2023-01-06T07:15:08;4.67;;;0.80;;
43529;SDS011;55654;50.966;6.878;2023-01-06T07:17:34;3.00;;;0.47;;
43529;SDS011;55654;50.966;6.878;2023-01-06T07:20:00;6.33;;;0.67;;
43529;SDS011;55654;50.966;6.878;2023-01-06T07:22:26;1.23;;;0.50;;
43529;SDS011;55654;50.966;6.878;2023-01-06T07:24:52;0.60;;;0.40;;
43529;SDS011;55654;50.966;6.878;2023-01-06T07:27:18;1.77;;;0.40;;
43529;SDS011;55654;50.966;6.878;2023-01-06T07:29:46;1.03;;;0.33;;
43529;SDS011;55654;50.966;6.878;2023-01-06T07:32:12;0.97;;;0.50;;
43529;SDS011;55654;50.966;6.878;2023-01-06T07:34:38;1.03;;;0.40;;
43529;SDS011;55654;50.966;6.878;2023-01-06T07:37:06;1.57;;;0.93;;
43529;SDS011;55654;50.966;6.878;2023-01-06T07:39:33;3.43;;;0.97;;
43529;SDS011;55654;50.966;6.878;2023-01-06T07:41:59;2.20;;;0.40;;
43529;SDS011;55654;50.966;6.878;2023-01-06T07:44:27;1.33;;;0.40;;
43529;SDS011;55654;50.966;6.878;2023-01-06T07:46:55;0.67;;;0.23;;
43529;SDS011;55654;50.966;6.878;2023-01-06T07:49:23;2.63;;;0.37;;
43529;SDS011;55654;50.966;6.878;2023-01-06T07:51:49;1.90;;;0.63;;
43529;SDS011;55654;50.966;6.878;2023-01-06T07:54:20;0.70;;;0.30;;
43529;SDS011;55654;50.966;6.878;2023-01-06T07:56:46;0.67;;;0.30;;
43529;SDS011;55654;50.966;6.878;2023-01-06T07:59:12;3.70;;;0.83;;
43529;SDS011;55654;50.966;6.878;2023-01-06T08:01:38;1.30;;;0.63;;
43529;SDS011;55654;50.966;6.878;2023-01-06T08:04:04;2.33;;;0.47;;
43529;SDS011;55654;50.966;6.878;2023-01-06T08:06:30;1.83;;;0.70;;
43529;SDS011;55654;50.966;6.878;2023-01-06T08:08:56;0.60;;;0.30;;
43529;SDS011;55654;50.966;6.878;2023-01-06T08:11:22;2.20;;;0.40;;
43529;SDS011;55654;50.966;6.878;2023-01-06T08:13:48;1.83;;;0.40;;
43529;SDS011;55654;50.966;6.878;2023-01-06T08:16:14;2.50;;;0.73;;
43529;SDS011;55654;50.966;6.878;2023-01-06T08:18:40;1.63;;;0.60;;
43529;SDS011;55654;50.966;6.878;2023-01-06T08:21:09;3.40;;;1.00;;
43529;SDS011;55654;50.966;6.878;2023-01-06T08:23:35;1.27;;;0.50;;
43529;SDS011;55654;50.966;6.878;2023-01-06T08:28:30;0.77;;;0.40;;
43529;SDS011;55654;50.966;6.878;2023-01-06T08:30:56;1.37;;;0.40;;
43529;SDS011;55654;50.966;6.878;2023-01-06T08:33:23;3.73;;;0.60;;
43529;SDS011;55654;50.966;6.878;2023-01-06T08:35:50;3.17;;;0.70;;
43529;SDS011;55654;50.966;6.878;2023-01-06T08:38:16;2.03;;;0.40;;
43529;SDS011;55654;50.966;6.878;2023-01-06T08:40:44;0.70;;;0.30;;
43529;SDS011;55654;50.966;6.878;2023-01-06T08:43:10;2.60;;;0.50;;
43529;SDS011;55654;50.966;6.878;2023-01-06T08:45:37;2.60;;;0.60;;
43529;SDS011;55654;50.966;6.878;2023-01-06T08:48:05;1.67;;;0.40;;
43529;SDS011;55654;50.966;6.878;2023-01-06T08:50:31;1.70;;;0.47;;
43529;SDS011;55654;50.966;6.878;2023-01-06T08:53:02;0.60;;;0.40;;
43529;SDS011;55654;50.966;6.878;2023-01-06T08:55:28;1.70;;;0.50;;
43529;SDS011;55654;50.966;6.878;2023-01-06T08:57:55;0.83;;;0.47;;
43529;SDS011;55654;50.966;6.878;2023-01-06T09:00:21;1.97;;;0.50;;
43529;SDS011;55654;50.966;6.878;2023-01-06T09:02:47;1.80;;;0.47;;
43529;SDS011;55654;50.966;6.878;2023-01-06T09:05:16;1.17;;;0.43;;
43529;SDS011;55654;50.966;6.878;2023-01-06T09:07:42;1.90;;;0.37;;
43529;SDS011;55654;50.966;6.878;2023-01-06T09:10:08;2.27;;;0.33;;
43529;SDS011;55654;50.966;6.878;2023-01-06T09:12:34;0.63;;;0.30;;
43529;SDS011;55654;50.966;6.878;2023-01-06T09:15:02;0.90;;;0.37;;
43529;SDS011;55654;50.966;6.878;2023-01-06T09:17:28;0.87;;;0.40;;
43529;SDS011;55654;50.966;6.878;2023-01-06T09:19:54;0.70;;;0.40;;
43529;SDS011;55654;50.966;6.878;2023-01-06T09:22:20;0.90;;;0.20;;
43529;SDS011;55654;50.966;6.878;2023-01-06T09:24:46;1.07;;;0.20;;
43529;SDS011;55654;50.966;6.878;2023-01-06T09:27:13;0.40;;;0.30;;
43529;SDS011;55654;50.966;6.878;2023-01-06T09:29:39;0.40;;;0.40;;
43529;SDS011;55654;50.966;6.878;2023-01-06T09:32:07;0.37;;;0.17;;
43529;SDS011;55654;50.966;6.878;2023-01-06T09:34:38;1.17;;;0.33;;
43529;SDS011;55654;50.966;6.878;2023-01-06T09:37:04;0.60;;;0.27;;
43529;SDS011;55654;50.966;6.878;2023-01-06T09:39:33;0.53;;;0.20;;
43529;SDS011;55654;50.966;6.878;2023-01-06T09:47:20;0.20;;;0.20;;
43529;SDS011;55654;50.966;6.878;2023-01-06T09:49:49;0.87;;;0.33;;
43529;SDS011;55654;50.966;6.878;2023-01-06T09:54:56;1.50;;;0.20;;
43529;SDS011;55654;50.966;6.878;2023-01-06T09:57:29;1.47;;;0.87;;
43529;SDS011;55654;50.966;6.878;2023-01-06T09:59:59;3.70;;;0.33;;
43529;SDS011;55654;50.966;6.878;2023-01-06T10:02:27;0.43;;;0.20;;
43529;SDS011;55654;50.966;6.878;2023-01-06T10:04:56;0.30;;;0.23;;
43529;SDS011;55654;50.966;6.878;2023-01-06T10:07:37;0.50;;;0.20;;
43529;SDS011;55654;50.966;6.878;2023-01-06T10:10:12;0.50;;;0.20;;
43529;SDS011;55654;50.966;6.878;2023-01-06T10:15:24;0.20;;;0.10;;
43529;SDS011;55654;50.966;6.878;2023-01-06T10:18:00;1.00;;;0.30;;
43529;SDS011;55654;50.966;6.878;2023-01-06T10:20:34;0.50;;;0.27;;
43529;SDS011;55654;50.966;6.878;2023-01-06T10:25:34;0.63;;;0.10;;
43529;SDS011;55654;50.966;6.878;2023-01-06T10:30:30;0.40;;;0.20;;
43529;SDS011;55654;50.966;6.878;2023-01-06T10:32:58;0.53;;;0.20;;
43529;SDS011;55654;50.966;6.878;2023-01-06T10:35:27;1.23;;;0.40;;
43529;SDS011;55654;50.966;6.878;2023-01-06T10:37:53;0.57;;;0.20;;
43529;SDS011;55654;50.966;6.878;2023-01-06T10:40:24;0.17;;;0.10;;
43529;SDS011;55654;50.966;6.878;2023-01-06T10:42:55;0.97;;;0.20;;
43529;SDS011;55654;50.966;6.878;2023-01-06T10:48:02;4.27;;;0.90;;
43529;SDS011;55654;50.966;6.878;2023-01-06T10:50:29;0.17;;;0.17;;
43529;SDS011;55654;50.966;6.878;2023-01-06T10:52:55;0.30;;;0.20;;
43529;SDS011;55654;50.966;6.878;2023-01-06T10:58:10;0.93;;;0.43;;
43529;SDS011;55654;50.966;6.878;2023-01-06T11:00:52;0.60;;;0.37;;
43529;SDS011;55654;50.966;6.878;2023-01-06T11:03:19;0.37;;;0.20;;
43529;SDS011;55654;50.966;6.878;2023-01-06T11:05:45;1.13;;;0.30;;
43529;SDS011;55654;50.966;6.878;2023-01-06T11:08:12;0.90;;;0.30;;
43529;SDS011;55654;50.966;6.878;2023-01-06T11:13:28;0.20;;;0.20;;
43529;SDS011;55654;50.966;6.878;2023-01-06T11:15:55;1.13;;;0.30;;
43529;SDS011;55654;50.966;6.878;2023-01-06T11:18:26;0.53;;;0.30;;
43529;SDS011;55654;50.966;6.878;2023-01-06T11:21:00;0.40;;;0.30;;
43529;SDS011;55654;50.966;6.878;2023-01-06T11:23:27;0.37;;;0.20;;
43529;SDS011;55654;50.966;6.878;2023-01-06T11:28:30;0.43;;;0.20;;
43529;SDS011;55654;50.966;6.878;2023-01-06T11:36:16;0.63;;;0.30;;
43529;SDS011;55654;50.966;6.878;2023-01-06T11:38:46;0.40;;;0.30;;
43529;SDS011;55654;50.966;6.878;2023-01-06T11:41:18;1.60;;;0.30;;
43529;SDS011;55654;50.966;6.878;2023-01-06T11:43:45;0.67;;;0.27;;
43529;SDS011;55654;50.966;6.878;2023-01-06T11:46:12;0.67;;;0.30;;
43529;SDS011;55654;50.966;6.878;2023-01-06T11:48:42;1.43;;;0.30;;
43529;SDS011;55654;50.966;6.878;2023-01-06T11:51:12;0.77;;;0.23;;
43529;SDS011;55654;50.966;6.878;2023-01-06T11:53:38;1.67;;;0.47;;
43529;SDS011;55654;50.966;6.878;2023-01-06T11:56:05;1.53;;;0.60;;
43529;SDS011;55654;50.966;6.878;2023-01-06T12:03:53;2.20;;;0.40;;
43529;SDS011;55654;50.966;6.878;2023-01-06T12:06:27;0.90;;;0.43;;
43529;SDS011;55654;50.966;6.878;2023-01-06T12:13:51;1.53;;;0.30;;
43529;SDS011;55654;50.966;6.878;2023-01-06T12:16:45;2.10;;;0.30;;
43529;SDS011;55654;50.966;6.878;2023-01-06T12:19:30;2.23;;;0.30;;
43529;SDS011;55654;50.966;6.878;2023-01-06T12:21:52;2.43;;;0.40;;
43529;SDS011;55654;50.966;6.878;2023-01-06T12:24:20;1.87;;;0.47;;
43529;SDS011;55654;50.966;6.878;2023-01-06T12:26:46;2.13;;;1.03;;
43529;SDS011;55654;50.966;6.878;2023-01-06T12:29:15;1.27;;;0.30;;
43529;SDS011;55654;50.966;6.878;2023-01-06T12:39:24;1.17;;;0.50;;
43529;SDS011;55654;50.966;6.878;2023-01-06T12:42:03;0.80;;;0.30;;
43529;SDS011;55654;50.966;6.878;2023-01-06T12:44:37;1.30;;;0.30;;
43529;SDS011;55654;50.966;6.878;2023-01-06T12:52:46;0.40;;;0.40;;
43529;SDS011;55654;50.966;6.878;2023-01-06T12:55:11;0.43;;;0.20;;
43529;SDS011;55654;50.966;6.878;2023-01-06T13:07:46;1.37;;;0.40;;
43529;SDS011;55654;50.966;6.878;2023-01-06T13:10:30;1.40;;;0.70;;
43529;SDS011;55654;50.966;6.878;2023-01-06T13:15:42;1.50;;;0.37;;
43529;SDS011;55654;50.966;6.878;2023-01-06T13:18:18;0.30;;;0.30;;
43529;SDS011;55654;50.966;6.878;2023-01-06T13:20:47;1.13;;;0.73;;
43529;SDS011;55654;50.966;6.878;2023-01-06T13:39:05;1.53;;;0.33;;
43529;SDS011;55654;50.966;6.878;2023-01-06T13:41:33;0.77;;;0.50;;
43529;SDS011;55654;50.966;6.878;2023-01-06T13:44:00;0.27;;;0.20;;
43529;SDS011;55654;50.966;6.878;2023-01-06T13:46:27;1.13;;;0.50;;
43529;SDS011;55654;50.966;6.878;2023-01-06T13:48:56;1.20;;;0.30;;
43529;SDS011;55654;50.966;6.878;2023-01-06T13:51:25;0.60;;;0.30;;
43529;SDS011;55654;50.966;6.878;2023-01-06T13:53:51;3.60;;;0.50;;
43529;SDS011;55654;50.966;6.878;2023-01-06T13:58:48;0.50;;;0.37;;
43529;SDS011;55654;50.966;6.878;2023-01-06T14:03:45;1.43;;;0.90;;
43529;SDS011;55654;50.966;6.878;2023-01-06T14:06:57;1.17;;;0.37;;
43529;SDS011;55654;50.966;6.878;2023-01-06T14:08:58;1.00;;;0.40;;
43529;SDS011;55654;50.966;6.878;2023-01-06T14:11:29;1.37;;;0.80;;
43529;SDS011;55654;50.966;6.878;2023-01-06T14:13:56;0.50;;;0.37;;
43529;SDS011;55654;50.966;6.878;2023-01-06T14:16:42;0.83;;;0.53;;
43529;SDS011;55654;50.966;6.878;2023-01-06T14:21:46;0.93;;;0.40;;
43529;SDS011;55654;50.966;6.878;2023-01-06T14:32:56;1.30;;;0.60;;
43529;SDS011;55654;50.966;6.878;2023-01-06T14:34:56;1.63;;;1.00;;
43529;SDS011;55654;50.966;6.878;2023-01-06T14:37:40;2.90;;;0.50;;
43529;SDS011;55654;50.966;6.878;2023-01-06T14:40:15;1.97;;;0.67;;
43529;SDS011;55654;50.966;6.878;2023-01-06T14:42:43;11.23;;;1.57;;
43529;SDS011;55654;50.966;6.878;2023-01-06T14:45:15;2.30;;;1.00;;
43529;SDS011;55654;50.966;6.878;2023-01-06T14:47:46;2.75;;;0.77;;
43529;SDS011;55654;50.966;6.878;2023-01-06T14:50:14;0.80;;;0.50;;
43529;SDS011;55654;50.966;6.878;2023-01-06T14:52:46;2.50;;;0.73;;
43529;SDS011;55654;50.966;6.878;2023-01-06T14:55:15;3.10;;;1.57;;
43529;SDS011;55654;50.966;6.878;2023-01-06T14:57:42;5.40;;;1.97;;
43529;SDS011;55654;50.966;6.878;2023-01-06T15:02:43;2.43;;;0.60;;
43529;SDS011;55654;50.966;6.878;2023-01-06T15:05:16;2.60;;;1.53;;
43529;SDS011;55654;50.966;6.878;2023-01-06T15:10:21;0.97;;;0.43;;
43529;SDS011;55654;50.966;6.878;2023-01-06T15:12:49;9.13;;;4.77;;
43529;SDS011;55654;50.966;6.878;2023-01-06T15:15:23;2.33;;;0.60;;
43529;SDS011;55654;50.966;6.878;2023-01-06T15:17:50;5.93;;;3.27;;
43529;SDS011;55654;50.966;6.878;2023-01-06T15:20:17;3.00;;;0.90;;
43529;SDS011;55654;50.966;6.878;2023-01-06T15:22:48;2.90;;;0.90;;
43529;SDS011;55654;50.966;6.878;2023-01-06T15:25:17;5.13;;;2.20;;
43529;SDS011;55654;50.966;6.878;2023-01-06T15:27:45;3.63;;;0.67;;
43529;SDS011;55654;50.966;6.878;2023-01-06T15:30:16;4.50;;;2.97;;
43529;SDS011;55654;50.966;6.878;2023-01-06T15:32:43;2.13;;;0.80;;
43529;SDS011;55654;50.966;6.878;2023-01-06T15:35:13;2.80;;;1.10;;
43529;SDS011;55654;50.966;6.878;2023-01-06T15:37:43;3.63;;;1.17;;
43529;SDS011;55654;50.966;6.878;2023-01-06T15:40:19;0.60;;;0.40;;
43529;SDS011;55654;50.966;6.878;2023-01-06T15:42:46;4.00;;;0.80;;
43529;SDS011;55654;50.966;6.878;2023-01-06T15:45:31;1.27;;;0.40;;
43529;SDS011;55654;50.966;6.878;2023-01-06T15:47:57;5.57;;;2.13;;
43529;SDS011;55654;50.966;6.878;2023-01-06T15:50:26;1.87;;;0.57;;
43529;SDS011;55654;50.966;6.878;2023-01-06T15:52:59;2.03;;;0.70;;
43529;SDS011;55654;50.966;6.878;2023-01-06T15:58:07;5.23;;;0.70;;
43529;SDS011;55654;50.966;6.878;2023-01-06T16:03:06;4.10;;;1.25;;
43529;SDS011;55654;50.966;6.878;2023-01-06T16:05:36;2.80;;;1.87;;
43529;SDS011;55654;50.966;6.878;2023-01-06T16:08:04;3.23;;;1.20;;
43529;SDS011;55654;50.966;6.878;2023-01-06T16:10:35;2.87;;;1.50;;
43529;SDS011;55654;50.966;6.878;2023-01-06T16:13:55;3.40;;;1.37;;
43529;SDS011;55654;50.966;6.878;2023-01-06T16:15:52;1.33;;;0.77;;
43529;SDS011;55654;50.966;6.878;2023-01-06T16:18:24;2.57;;;1.20;;
43529;SDS011;55654;50.966;6.878;2023-01-06T16:20:53;4.38;;;2.13;;
43529;SDS011;55654;50.966;6.878;2023-01-06T16:23:25;1.10;;;0.60;;
43529;SDS011;55654;50.966;6.878;2023-01-06T16:26:12;1.88;;;1.10;;
43529;SDS011;55654;50.966;6.878;2023-01-06T16:28:45;2.47;;;1.53;;
43529;SDS011;55654;50.966;6.878;2023-01-06T16:31:12;0.73;;;0.67;;
43529;SDS011;55654;50.966;6.878;2023-01-06T16:33:42;1.33;;;0.40;;
43529;SDS011;55654;50.966;6.878;2023-01-06T16:36:13;0.80;;;0.30;;
43529;SDS011;55654;50.966;6.878;2023-01-06T16:38:39;1.83;;;0.40;;
43529;SDS011;55654;50.966;6.878;2023-01-06T16:41:14;1.53;;;0.40;;
43529;SDS011;55654;50.966;6.878;2023-01-06T16:43:45;0.77;;;0.30;;
43529;SDS011;55654;50.966;6.878;2023-01-06T16:46:19;0.60;;;0.33;;
43529;SDS011;55654;50.966;6.878;2023-01-06T16:48:54;2.57;;;0.40;;
43529;SDS011;55654;50.966;6.878;2023-01-06T16:51:20;0.93;;;0.50;;
43529;SDS011;55654;50.966;6.878;2023-01-06T16:53:47;1.73;;;0.50;;
43529;SDS011;55654;50.966;6.878;2023-01-06T16:56:18;1.30;;;0.80;;
43529;SDS011;55654;50.966;6.878;2023-01-06T16:58:46;3.70;;;1.88;;
43529;SDS011;55654;50.966;6.878;2023-01-06T17:01:13;2.17;;;0.87;;
43529;SDS011;55654;50.966;6.878;2023-01-06T17:03:40;0.80;;;0.70;;
43529;SDS011;55654;50.966;6.878;2023-01-06T17:06:26;1.70;;;0.67;;
43529;SDS011;55654;50.966;6.878;2023-01-06T17:08:53;2.13;;;0.70;;
43529;SDS011;55654;50.966;6.878;2023-01-06T17:11:21;3.60;;;1.37;;
43529;SDS011;55654;50.966;6.878;2023-01-06T17:13:52;2.13;;;0.97;;
43529;SDS011;55654;50.966;6.878;2023-01-06T17:16:19;2.73;;;1.27;;
43529;SDS011;55654;50.966;6.878;2023-01-06T17:18:52;1.42;;;1.00;;
43529;SDS011;55654;50.966;6.878;2023-01-06T17:21:36;5.87;;;1.47;;
43529;SDS011;55654;50.966;6.878;2023-01-06T17:29:14;1.97;;;0.80;;
43529;SDS011;55654;50.966;6.878;2023-01-06T17:31:45;2.60;;;1.30;;
43529;SDS011;55654;50.966;6.878;2023-01-06T17:34:20;2.77;;;1.00;;
43529;SDS011;55654;50.966;6.878;2023-01-06T17:36:47;1.90;;;0.87;;
43529;SDS011;55654;50.966;6.878;2023-01-06T17:41:43;2.40;;;1.10;;
43529;SDS011;55654;50.966;6.878;2023-01-06T17:44:13;1.83;;;0.73;;
43529;SDS011;55654;50.966;6.878;2023-01-06T17:46:40;1.57;;;1.03;;